sensor_id;sensor_type;location;lat;lon;timestamp;pressure;altitude;pressure_sealevel;temperature;humidity
11448;BME280;43755;49.736;8.734;2024-02-04T00:00:24;98820.22;;;7.73;100.00
11448;BME280;43755;49.736;8.734;2024-02-04T00:02:26;98825.56;;;7.70;100.00
11448;BME280;43755;49.736;8.734;2024-02-04T00:04:27;98808.06;;;7.67;100.00
11448;BME280;43755;49.736;8.734;2024-02-04T00:06:29;98801.25;;;7.54;100.00
11448;BME280;43755;49.736;8.734;2024-02-04T00:08:30;98809.09;;;7.59;100.00
11448;BME280;43755;49.736;8.734;2024-02-04T00:10:32;98819.66;;;7.57;100.00
11448;BME280;43755;49.736;8.734;2024-02-04T00:12:32;98817.91;;;7.56;100.00
11448;BME280;43755;49.736;8.734;2024-02-04T00:14:34;98815.25;;;7.58;100.00
11448;BME280;43755;49.736;8.734;2024-02-04T00:16:35;98817.97;;;7.53;100.00
11448;BME280;43755;49.736;8.734;2024-02-04T00:18:37;98810.00;;;7.58;100.00
11448;BME280;43755;49.736;8.734;2024-02-04T00:20:38;98812.59;;;7.59;100.00
11448;BME280;43755;49.736;8.734;2024-02-04T00:22:39;98812.66;;;7.56;100.00
11448;BME280;43755;49.736;8.734;2024-02-04T00:24:41;98807.41;;;7.55;100.00
11448;BME280;43755;49.736;8.734;2024-02-04T00:26:41;98802.28;;;7.47;100.00
11448;BME280;43755;49.736;8.734;2024-02-04T00:28:43;98803.97;;;7.50;100.00
11448;BME280;43755;49.736;8.734;2024-02-04T00:30:43;98804.75;;;7.55;100.00
11448;BME280;43755;49.736;8.734;2024-02-04T00:32:46;98805.72;;;7.52;100.00
11448;BME280;43755;49.736;8.734;2024-02-04T00:34:47;98805.75;;;7.49;100.00
11448;BME280;43755;49.736;8.734;2024-02-04T00:36:49;98806.59;;;7.51;100.00
11448;BME280;43755;49.736;8.734;2024-02-04T00:38:50;98802.28;;;7.47;100.00
11448;BME280;43755;49.736;8.734;2024-02-04T00:40:51;98810.94;;;7.54;100.00
11448;BME280;43755;49.736;8.734;2024-02-04T00:42:54;98799.59;;;7.49;100.00
11448;BME280;43755;49.736;8.734;2024-02-04T00:44:55;98808.44;;;7.48;100.00
11448;BME280;43755;49.736;8.734;2024-02-04T00:46:57;98808.31;;;7.54;100.00
11448;BME280;43755;49.736;8.734;2024-02-04T00:49:00;98805.63;;;7.57;100.00
11448;BME280;43755;49.736;8.734;2024-02-04T00:51:01;98806.59;;;7.53;100.00
11448;BME280;43755;49.736;8.734;2024-02-04T00:53:01;98796.84;;;7.56;100.00
11448;BME280;43755;49.736;8.734;2024-02-04T00:55:03;98794.22;;;7.55;100.00
11448;BME280;43755;49.736;8.734;2024-02-04T00:57:05;98799.56;;;7.53;100.00
11448;BME280;43755;49.736;8.734;2024-02-04T00:59:05;98788.91;;;7.59;100.00
11448;BME280;43755;49.736;8.734;2024-02-04T01:01:07;98798.47;;;7.63;100.00
11448;BME280;43755;49.736;8.734;2024-02-04T01:03:07;98784.50;;;7.60;100.00
11448;BME280;43755;49.736;8.734;2024-02-04T01:05:10;98786.16;;;7.65;100.00
11448;BME280;43755;49.736;8.734;2024-02-04T01:07:12;98777.56;;;7.54;100.00
11448;BME280;43755;49.736;8.734;2024-02-04T01:09:14;98784.50;;;7.60;100.00
11448;BME280;43755;49.736;8.734;2024-02-04T01:11:14;98784.47;;;7.61;100.00
11448;BME280;43755;49.736;8.734;2024-02-04T01:13:16;98786.28;;;7.58;100.00
11448;BME280;43755;49.736;8.734;2024-02-04T01:15:17;98795.00;;;7.61;100.00
11448;BME280;43755;49.736;8.734;2024-02-04T01:17:19;98787.94;;;7.63;100.00
11448;BME280;43755;49.736;8.734;2024-02-04T01:19:20;98787.94;;;7.65;100.00
11448;BME280;43755;49.736;8.734;2024-02-04T01:21:23;98794.09;;;7.62;100.00
11448;BME280;43755;49.736;8.734;2024-02-04T01:23:25;98794.19;;;7.58;100.00
11448;BME280;43755;49.736;8.734;2024-02-04T01:25:27;98795.88;;;7.62;100.00
11448;BME280;43755;49.736;8.734;2024-02-04T01:27:27;98794.97;;;7.63;100.00
11448;BME280;43755;49.736;8.734;2024-02-04T01:29:29;98794.94;;;7.64;100.00
11448;BME280;43755;49.736;8.734;2024-02-04T01:31:30;98795.84;;;7.63;100.00
11448;BME280;43755;49.736;8.734;2024-02-04T01:33:31;98791.47;;;7.62;100.00
11448;BME280;43755;49.736;8.734;2024-02-04T01:35:32;98784.47;;;7.61;100.00
11448;BME280;43755;49.736;8.734;2024-02-04T01:37:35;98779.31;;;7.55;100.00
11448;BME280;43755;49.736;8.734;2024-02-04T01:39:35;98789.72;;;7.61;100.00
11448;BME280;43755;49.736;8.734;2024-02-04T01:41:36;98795.88;;;7.60;100.00
11448;BME280;43755;49.736;8.734;2024-02-04T01:43:38;98787.06;;;7.63;100.00
11448;BME280;43755;49.736;8.734;2024-02-04T01:45:39;98790.59;;;7.62;100.00
11448;BME280;43755;49.736;8.734;2024-02-04T01:47:41;98781.88;;;7.60;100.00
11448;BME280;43755;49.736;8.734;2024-02-04T01:49:43;98787.25;;;7.54;100.00
11448;BME280;43755;49.736;8.734;2024-02-04T01:51:43;98788.94;;;7.56;100.00
11448;BME280;43755;49.736;8.734;2024-02-04T01:53:47;98790.69;;;7.57;100.00
11448;BME280;43755;49.736;8.734;2024-02-04T01:55:50;98788.09;;;7.54;100.00
11448;BME280;43755;49.736;8.734;2024-02-04T01:57:50;98788.16;;;7.51;100.00
11448;BME280;43755;49.736;8.734;2024-02-04T01:59:52;98781.13;;;7.52;100.00
11448;BME280;43755;49.736;8.734;2024-02-04T02:01:56;98779.41;;;7.49;100.00
11448;BME280;43755;49.736;8.734;2024-02-04T02:03:59;98783.00;;;7.47;100.00
11448;BME280;43755;49.736;8.734;2024-02-04T02:06:03;98769.84;;;7.45;100.00
11448;BME280;43755;49.736;8.734;2024-02-04T02:08:05;98780.38;;;7.45;100.00
11448;BME280;43755;49.736;8.734;2024-02-04T02:10:08;98787.28;;;7.51;100.00
11448;BME280;43755;49.736;8.734;2024-02-04T02:12:13;98783.00;;;7.45;100.00
11448;BME280;43755;49.736;8.734;2024-02-04T02:14:19;98782.13;;;7.46;100.00
11448;BME280;43755;49.736;8.734;2024-02-04T02:16:24;98788.19;;;7.48;100.00
11448;BME280;43755;49.736;8.734;2024-02-04T02:18:32;98786.50;;;7.47;100.00
11448;BME280;43755;49.736;8.734;2024-02-04T02:20:41;98791.00;;;7.40;100.00
11448;BME280;43755;49.736;8.734;2024-02-04T02:22:49;98788.44;;;7.36;100.00
11448;BME280;43755;49.736;8.734;2024-02-04T02:24:53;98784.88;;;7.38;100.00
11448;BME280;43755;49.736;8.734;2024-02-04T02:26:57;98779.63;;;7.37;100.00
11448;BME280;43755;49.736;8.734;2024-02-04T02:28:59;98774.56;;;7.26;100.00
11448;BME280;43755;49.736;8.734;2024-02-04T02:31:00;98777.25;;;7.23;100.00
11448;BME280;43755;49.736;8.734;2024-02-04T02:33:00;98786.09;;;7.19;100.00
11448;BME280;43755;49.736;8.734;2024-02-04T02:35:02;98772.81;;;7.27;100.00
11448;BME280;43755;49.736;8.734;2024-02-04T02:37:11;98779.94;;;7.19;100.00
11448;BME280;43755;49.736;8.734;2024-02-04T02:39:18;98783.34;;;7.27;100.00
11448;BME280;43755;49.736;8.734;2024-02-04T02:41:23;98773.84;;;7.18;100.00
11448;BME280;43755;49.736;8.734;2024-02-04T02:43:26;98766.00;;;7.15;100.00
11448;BME280;43755;49.736;8.734;2024-02-04T02:45:28;98769.50;;;7.16;100.00
11448;BME280;43755;49.736;8.734;2024-02-04T02:47:30;98757.91;;;7.26;100.00
11448;BME280;43755;49.736;8.734;2024-02-04T02:49:33;98753.63;;;7.19;100.00
11448;BME280;43755;49.736;8.734;2024-02-04T02:51:34;98744.91;;;7.17;100.00
11448;BME280;43755;49.736;8.734;2024-02-04T02:53:35;98739.66;;;7.17;100.00
11448;BME280;43755;49.736;8.734;2024-02-04T02:55:37;98753.81;;;7.10;100.00
11448;BME280;43755;49.736;8.734;2024-02-04T02:57:39;98751.06;;;7.17;100.00
11448;BME280;43755;49.736;8.734;2024-02-04T02:59:41;98750.28;;;7.12;100.00
11448;BME280;43755;49.736;8.734;2024-02-04T03:01:42;98753.78;;;7.11;100.00
11448;BME280;43755;49.736;8.734;2024-02-04T03:03:43;98753.72;;;7.14;100.00
11448;BME280;43755;49.736;8.734;2024-02-04T03:05:44;98751.09;;;7.14;100.00
11448;BME280;43755;49.736;8.734;2024-02-04T03:07:46;98745.03;;;7.11;100.00
11448;BME280;43755;49.736;8.734;2024-02-04T03:09:47;98750.28;;;7.11;100.00
11448;BME280;43755;49.736;8.734;2024-02-04T03:11:48;98751.16;;;7.11;100.00
11448;BME280;43755;49.736;8.734;2024-02-04T03:13:51;98745.81;;;7.16;100.00
11448;BME280;43755;49.736;8.734;2024-02-04T03:15:52;98750.19;;;7.17;100.00
11448;BME280;43755;49.736;8.734;2024-02-04T03:17:53;98751.97;;;7.13;100.00
11448;BME280;43755;49.736;8.734;2024-02-04T03:19:55;98743.09;;;7.19;100.00
11448;BME280;43755;49.736;8.734;2024-02-04T03:21:56;98734.47;;;7.12;100.00
11448;BME280;43755;49.736;8.734;2024-02-04T03:23:57;98737.81;;;7.20;100.00
11448;BME280;43755;49.736;8.734;2024-02-04T03:25:59;98736.13;;;7.18;100.00
11448;BME280;43755;49.736;8.734;2024-02-04T03:27:59;98745.81;;;7.14;100.00
11448;BME280;43755;49.736;8.734;2024-02-04T03:30:02;98741.41;;;7.16;100.00
11448;BME280;43755;49.736;8.734;2024-02-04T03:32:05;98744.91;;;7.17;100.00
11448;BME280;43755;49.736;8.734;2024-02-04T03:34:06;98743.19;;;7.14;100.00
11448;BME280;43755;49.736;8.734;2024-02-04T03:36:07;98737.16;;;7.09;100.00
11448;BME280;43755;49.736;8.734;2024-02-04T03:38:09;98736.25;;;7.12;100.00
11448;BME280;43755;49.736;8.734;2024-02-04T03:40:11;98746.66;;;7.18;100.00
11448;BME280;43755;49.736;8.734;2024-02-04T03:42:13;98731.75;;;7.18;100.00
11448;BME280;43755;49.736;8.734;2024-02-04T03:44:14;98728.19;;;7.19;100.00
11448;BME280;43755;49.736;8.734;2024-02-04T03:46:17;98743.91;;;7.24;100.00
11448;BME280;43755;49.736;8.734;2024-02-04T03:48:18;98739.59;;;7.20;100.00
11448;BME280;43755;49.736;8.734;2024-02-04T03:50:19;98739.56;;;7.21;100.00
11448;BME280;43755;49.736;8.734;2024-02-04T03:52:20;98739.66;;;7.15;100.00
11448;BME280;43755;49.736;8.734;2024-02-04T03:54:21;98734.22;;;7.26;100.00
11448;BME280;43755;49.736;8.734;2024-02-04T03:56:23;98729.94;;;7.19;100.00
11448;BME280;43755;49.736;8.734;2024-02-04T03:58:24;98729.16;;;7.14;100.00
11448;BME280;43755;49.736;8.734;2024-02-04T04:00:29;98729.13;;;7.17;100.00
11448;BME280;43755;49.736;8.734;2024-02-04T04:02:32;98723.84;;;7.18;100.00
11448;BME280;43755;49.736;8.734;2024-02-04T04:04:33;98721.34;;;7.09;100.00
11448;BME280;43755;49.736;8.734;2024-02-04T04:06:35;98721.25;;;7.15;100.00
11448;BME280;43755;49.736;8.734;2024-02-04T04:08:36;98717.72;;;7.16;100.00
11448;BME280;43755;49.736;8.734;2024-02-04T04:10:38;98723.00;;;7.16;100.00
11448;BME280;43755;49.736;8.734;2024-02-04T04:12:38;98725.59;;;7.18;100.00
11448;BME280;43755;49.736;8.734;2024-02-04T04:14:39;98720.34;;;7.18;100.00
11448;BME280;43755;49.736;8.734;2024-02-04T04:16:40;98727.38;;;7.16;100.00
11448;BME280;43755;49.736;8.734;2024-02-04T04:18:42;98732.53;;;7.22;100.00
11448;BME280;43755;49.736;8.734;2024-02-04T04:20:43;98732.53;;;7.23;100.00
11448;BME280;43755;49.736;8.734;2024-02-04T04:22:44;98723.78;;;7.20;100.00
11448;BME280;43755;49.736;8.734;2024-02-04T04:24:46;98736.13;;;7.18;100.00
11448;BME280;43755;49.736;8.734;2024-02-04T04:26:46;98733.50;;;7.18;100.00
11448;BME280;43755;49.736;8.734;2024-02-04T04:28:48;98736.06;;;7.21;100.00
11448;BME280;43755;49.736;8.734;2024-02-04T04:30:51;98734.38;;;7.18;100.00
11448;BME280;43755;49.736;8.734;2024-02-04T04:32:52;98730.75;;;7.24;100.00
11448;BME280;43755;49.736;8.734;2024-02-04T04:34:54;98733.41;;;7.24;100.00
11448;BME280;43755;49.736;8.734;2024-02-04T04:36:56;98731.63;;;7.24;100.00
11448;BME280;43755;49.736;8.734;2024-02-04T04:38:57;98730.72;;;7.25;100.00
11448;BME280;43755;49.736;8.734;2024-02-04T04:40:59;98736.81;;;7.29;100.00
11448;BME280;43755;49.736;8.734;2024-02-04T04:43:00;98735.09;;;7.26;100.00
11448;BME280;43755;49.736;8.734;2024-02-04T04:45:02;98724.53;;;7.28;100.00
11448;BME280;43755;49.736;8.734;2024-02-04T04:47:02;98741.22;;;7.27;100.00
11448;BME280;43755;49.736;8.734;2024-02-04T04:49:04;98735.16;;;7.23;100.00
11448;BME280;43755;49.736;8.734;2024-02-04T04:51:07;98735.09;;;7.25;100.00
11448;BME280;43755;49.736;8.734;2024-02-04T04:53:09;98736.81;;;7.29;100.00
11448;BME280;43755;49.736;8.734;2024-02-04T04:55:11;98739.47;;;7.27;100.00
11448;BME280;43755;49.736;8.734;2024-02-04T04:57:12;98730.75;;;7.24;100.00
11448;BME280;43755;49.736;8.734;2024-02-04T04:59:14;98749.22;;;7.21;100.00
11448;BME280;43755;49.736;8.734;2024-02-04T05:01:16;98750.06;;;7.24;100.00
11448;BME280;43755;49.736;8.734;2024-02-04T05:03:16;98749.22;;;7.21;100.00
11448;BME280;43755;49.736;8.734;2024-02-04T05:05:18;98742.19;;;7.21;100.00
11448;BME280;43755;49.736;8.734;2024-02-04T05:07:21;98739.59;;;7.20;100.00
11448;BME280;43755;49.736;8.734;2024-02-04T05:09:22;98739.56;;;7.21;100.00
11448;BME280;43755;49.736;8.734;2024-02-04T05:11:24;98737.91;;;7.17;100.00
11448;BME280;43755;49.736;8.734;2024-02-04T05:13:25;98735.19;;;7.20;100.00
11448;BME280;43755;49.736;8.734;2024-02-04T05:15:26;98729.94;;;7.20;100.00
11448;BME280;43755;49.736;8.734;2024-02-04T05:17:30;98735.31;;;7.14;100.00
11448;BME280;43755;49.736;8.734;2024-02-04T05:19:32;98734.38;;;7.17;100.00
11448;BME280;43755;49.736;8.734;2024-02-04T05:21:33;98729.22;;;7.12;100.00
11448;BME280;43755;49.736;8.734;2024-02-04T05:23:37;98731.75;;;7.18;100.00
11448;BME280;43755;49.736;8.734;2024-02-04T05:25:38;98722.09;;;7.17;100.00
11448;BME280;43755;49.736;8.734;2024-02-04T05:27:40;98726.38;;;7.23;100.00
11448;BME280;43755;49.736;8.734;2024-02-04T05:29:41;98732.56;;;7.20;100.00
11448;BME280;43755;49.736;8.734;2024-02-04T05:31:42;98741.34;;;7.19;100.00
11448;BME280;43755;49.736;8.734;2024-02-04T05:33:43;98732.44;;;7.26;100.00
11448;BME280;43755;49.736;8.734;2024-02-04T05:35:45;98727.31;;;7.19;100.00
11448;BME280;43755;49.736;8.734;2024-02-04T05:37:45;98721.09;;;7.24;100.00
11448;BME280;43755;49.736;8.734;2024-02-04T05:39:48;98718.50;;;7.21;100.00
11448;BME280;43755;49.736;8.734;2024-02-04T05:41:49;98723.75;;;7.23;100.00
11448;BME280;43755;49.736;8.734;2024-02-04T05:43:51;98732.56;;;7.20;100.00
11448;BME280;43755;49.736;8.734;2024-02-04T05:45:51;98728.13;;;7.24;100.00
11448;BME280;43755;49.736;8.734;2024-02-04T05:47:52;98718.38;;;7.29;100.00
11448;BME280;43755;49.736;8.734;2024-02-04T05:49:54;98727.09;;;7.31;100.00
11448;BME280;43755;49.736;8.734;2024-02-04T05:51:54;98736.84;;;7.26;100.00
11448;BME280;43755;49.736;8.734;2024-02-04T05:53:56;98737.72;;;7.26;100.00
11448;BME280;43755;49.736;8.734;2024-02-04T05:55:58;98743.88;;;7.25;100.00
11448;BME280;43755;49.736;8.734;2024-02-04T05:58:00;98736.81;;;7.29;100.00
11448;BME280;43755;49.736;8.734;2024-02-04T06:00:01;98738.59;;;7.27;100.00
11448;BME280;43755;49.736;8.734;2024-02-04T06:02:03;98736.72;;;7.32;100.00
11448;BME280;43755;49.736;8.734;2024-02-04T06:04:05;98730.53;;;7.36;100.00
11448;BME280;43755;49.736;8.734;2024-02-04T06:06:06;98729.66;;;7.35;100.00
11448;BME280;43755;49.736;8.734;2024-02-04T06:08:06;98739.38;;;7.32;100.00
11448;BME280;43755;49.736;8.734;2024-02-04T06:10:08;98728.75;;;7.36;100.00
11448;BME280;43755;49.736;8.734;2024-02-04T06:12:11;98737.59;;;7.34;100.00
11448;BME280;43755;49.736;8.734;2024-02-04T06:14:13;98734.97;;;7.34;100.00
11448;BME280;43755;49.736;8.734;2024-02-04T06:16:14;98736.69;;;7.35;100.00
11448;BME280;43755;49.736;8.734;2024-02-04T06:18:16;98728.81;;;7.35;100.00
11448;BME280;43755;49.736;8.734;2024-02-04T06:20:18;98726.16;;;7.35;100.00
11448;BME280;43755;49.736;8.734;2024-02-04T06:22:19;98719.91;;;7.40;100.00
11448;BME280;43755;49.736;8.734;2024-02-04T06:24:20;98719.91;;;7.40;100.00
11448;BME280;43755;49.736;8.734;2024-02-04T06:26:22;98727.78;;;7.42;100.00
11448;BME280;43755;49.736;8.734;2024-02-04T06:28:25;98710.19;;;7.44;100.00
11448;BME280;43755;49.736;8.734;2024-02-04T06:30:26;98721.69;;;7.40;100.00
11448;BME280;43755;49.736;8.734;2024-02-04T06:32:26;98719.03;;;7.42;100.00
11448;BME280;43755;49.736;8.734;2024-02-04T06:34:28;98712.03;;;7.40;100.00
11448;BME280;43755;49.736;8.734;2024-02-04T06:36:29;98721.66;;;7.42;100.00
11448;BME280;43755;49.736;8.734;2024-02-04T06:38:30;98713.72;;;7.43;100.00
11448;BME280;43755;49.736;8.734;2024-02-04T06:40:31;98716.41;;;7.40;100.00
11448;BME280;43755;49.736;8.734;2024-02-04T06:42:32;98716.34;;;7.43;100.00
11448;BME280;43755;49.736;8.734;2024-02-04T06:44:35;98717.38;;;7.36;100.00
11448;BME280;43755;49.736;8.734;2024-02-04T06:46:35;98702.44;;;7.36;100.00
11448;BME280;43755;49.736;8.734;2024-02-04T06:48:37;98715.63;;;7.35;100.00
11448;BME280;43755;49.736;8.734;2024-02-04T06:50:38;98716.50;;;7.35;100.00
11448;BME280;43755;49.736;8.734;2024-02-04T06:52:40;98720.84;;;7.36;100.00
11448;BME280;43755;49.736;8.734;2024-02-04T06:54:42;98722.56;;;7.40;100.00
11448;BME280;43755;49.736;8.734;2024-02-04T06:56:44;98727.03;;;7.35;100.00
11448;BME280;43755;49.736;8.734;2024-02-04T06:58:45;98727.84;;;7.37;100.00
11448;BME280;43755;49.736;8.734;2024-02-04T07:00:48;98725.28;;;7.36;100.00
11448;BME280;43755;49.736;8.734;2024-02-04T07:02:49;98723.47;;;7.38;100.00
11448;BME280;43755;49.736;8.734;2024-02-04T07:04:50;98717.31;;;7.39;100.00
11448;BME280;43755;49.736;8.734;2024-02-04T07:06:51;98719.97;;;7.37;100.00
11448;BME280;43755;49.736;8.734;2024-02-04T07:08:52;98723.56;;;7.32;100.00
11448;BME280;43755;49.736;8.734;2024-02-04T07:10:54;98719.19;;;7.32;100.00
11448;BME280;43755;49.736;8.734;2024-02-04T07:12:54;98727.00;;;7.37;100.00
11448;BME280;43755;49.736;8.734;2024-02-04T07:14:55;98722.59;;;7.37;100.00
11448;BME280;43755;49.736;8.734;2024-02-04T07:16:58;98714.78;;;7.34;100.00
11448;BME280;43755;49.736;8.734;2024-02-04T07:19:00;98714.84;;;7.30;100.00
11448;BME280;43755;49.736;8.734;2024-02-04T07:21:01;98710.38;;;7.35;100.00
11448;BME280;43755;49.736;8.734;2024-02-04T07:23:03;98717.41;;;7.34;100.00
11448;BME280;43755;49.736;8.734;2024-02-04T07:25:05;98716.63;;;7.29;100.00
11448;BME280;43755;49.736;8.734;2024-02-04T07:27:07;98724.44;;;7.32;100.00
11448;BME280;43755;49.736;8.734;2024-02-04T07:29:08;98723.56;;;7.32;100.00
11448;BME280;43755;49.736;8.734;2024-02-04T07:31:10;98727.94;;;7.33;100.00
11448;BME280;43755;49.736;8.734;2024-02-04T07:33:13;98735.81;;;7.34;100.00
11448;BME280;43755;49.736;8.734;2024-02-04T07:35:14;98730.59;;;7.31;100.00
11448;BME280;43755;49.736;8.734;2024-02-04T07:37:15;98740.19;;;7.35;100.00
11448;BME280;43755;49.736;8.734;2024-02-04T07:39:17;98731.44;;;7.33;100.00
11448;BME280;43755;49.736;8.734;2024-02-04T07:41:19;98720.94;;;7.32;100.00
11448;BME280;43755;49.736;8.734;2024-02-04T07:43:20;98716.56;;;7.31;100.00
11448;BME280;43755;49.736;8.734;2024-02-04T07:45:22;98721.13;;;7.23;100.00
11448;BME280;43755;49.736;8.734;2024-02-04T07:47:23;98716.72;;;7.23;100.00
11448;BME280;43755;49.736;8.734;2024-02-04T07:49:26;98723.88;;;7.15;100.00
11448;BME280;43755;49.736;8.734;2024-02-04T07:51:27;98724.88;;;7.10;100.00
11448;BME280;43755;49.736;8.734;2024-02-04T07:53:28;98725.63;;;7.16;100.00
11448;BME280;43755;49.736;8.734;2024-02-04T07:55:30;98724.09;;;7.03;100.00
11448;BME280;43755;49.736;8.734;2024-02-04T07:57:30;98724.00;;;7.08;100.00
11448;BME280;43755;49.736;8.734;2024-02-04T07:59:32;98724.06;;;7.05;100.00
11448;BME280;43755;49.736;8.734;2024-02-04T08:01:33;98718.03;;;6.98;100.00
11448;BME280;43755;49.736;8.734;2024-02-04T08:03:34;98720.63;;;7.01;100.00
11448;BME280;43755;49.736;8.734;2024-02-04T08:05:36;98717.97;;;7.03;100.00
11448;BME280;43755;49.736;8.734;2024-02-04T08:07:38;98718.94;;;6.97;100.00
11448;BME280;43755;49.736;8.734;2024-02-04T08:09:39;98718.16;;;6.92;100.00
11448;BME280;43755;49.736;8.734;2024-02-04T08:11:40;98720.84;;;6.89;100.00
11448;BME280;43755;49.736;8.734;2024-02-04T08:13:42;98727.88;;;6.88;100.00
11448;BME280;43755;49.736;8.734;2024-02-04T08:15:42;98719.13;;;6.86;100.00
11448;BME280;43755;49.736;8.734;2024-02-04T08:17:44;98724.16;;;7.00;100.00
11448;BME280;43755;49.736;8.734;2024-02-04T08:19:45;98723.50;;;6.87;100.00
11448;BME280;43755;49.736;8.734;2024-02-04T08:21:48;98719.13;;;6.86;100.00
11448;BME280;43755;49.736;8.734;2024-02-04T08:23:49;98721.63;;;6.94;100.00
11448;BME280;43755;49.736;8.734;2024-02-04T08:25:50;98719.13;;;6.86;100.00
11448;BME280;43755;49.736;8.734;2024-02-04T08:27:51;98724.25;;;6.94;100.00
11448;BME280;43755;49.736;8.734;2024-02-04T08:29:53;98715.59;;;6.89;100.00
11448;BME280;43755;49.736;8.734;2024-02-04T08:31:55;98721.56;;;6.97;100.00
11448;BME280;43755;49.736;8.734;2024-02-04T08:33:56;98715.50;;;6.93;100.00
11448;BME280;43755;49.736;8.734;2024-02-04T08:35:57;98712.03;;;6.91;100.00
11448;BME280;43755;49.736;8.734;2024-02-04T08:38:00;98718.13;;;6.93;100.00
11448;BME280;43755;49.736;8.734;2024-02-04T08:40:01;98708.47;;;6.94;100.00
11448;BME280;43755;49.736;8.734;2024-02-04T08:42:04;98717.25;;;6.93;100.00
11448;BME280;43755;49.736;8.734;2024-02-04T08:44:05;98712.88;;;6.92;100.00
11448;BME280;43755;49.736;8.734;2024-02-04T08:46:06;98718.13;;;6.95;100.00
11448;BME280;43755;49.736;8.734;2024-02-04T08:48:08;98716.31;;;6.97;100.00
11448;BME280;43755;49.736;8.734;2024-02-04T08:50:10;98711.06;;;6.95;100.00
11448;BME280;43755;49.736;8.734;2024-02-04T08:52:12;98711.91;;;6.97;100.00
11448;BME280;43755;49.736;8.734;2024-02-04T08:54:15;98701.47;;;6.94;100.00
11448;BME280;43755;49.736;8.734;2024-02-04T08:56:17;98706.66;;;6.97;100.00
11448;BME280;43755;49.736;8.734;2024-02-04T08:58:18;98702.28;;;6.96;100.00
11448;BME280;43755;49.736;8.734;2024-02-04T09:00:20;98709.16;;;7.07;100.00
11448;BME280;43755;49.736;8.734;2024-02-04T09:02:22;98717.13;;;7.01;100.00
11448;BME280;43755;49.736;8.734;2024-02-04T09:04:24;98726.63;;;7.09;100.00
11448;BME280;43755;49.736;8.734;2024-02-04T09:06:25;98727.56;;;7.05;100.00
11448;BME280;43755;49.736;8.734;2024-02-04T09:08:27;98717.13;;;7.01;100.00
11448;BME280;43755;49.736;8.734;2024-02-04T09:10:29;98717.13;;;7.01;100.00
11448;BME280;43755;49.736;8.734;2024-02-04T09:12:31;98731.03;;;7.07;100.00
11448;BME280;43755;49.736;8.734;2024-02-04T09:14:32;98718.78;;;7.06;100.00
11448;BME280;43755;49.736;8.734;2024-02-04T09:16:33;98708.28;;;7.05;100.00
11448;BME280;43755;49.736;8.734;2024-02-04T09:18:37;98698.69;;;7.02;100.00
11448;BME280;43755;49.736;8.734;2024-02-04T09:20:38;98701.38;;;6.99;100.00
11448;BME280;43755;49.736;8.734;2024-02-04T09:22:40;98692.50;;;7.06;100.00
11448;BME280;43755;49.736;8.734;2024-02-04T09:24:41;98705.66;;;7.06;100.00
11448;BME280;43755;49.736;8.734;2024-02-04T09:26:44;98708.97;;;7.16;100.00
11448;BME280;43755;49.736;8.734;2024-02-04T09:28:44;98715.19;;;7.12;100.00
11448;BME280;43755;49.736;8.734;2024-02-04T09:30:46;98717.13;;;7.01;100.00
11448;BME280;43755;49.736;8.734;2024-02-04T09:32:47;98718.91;;;6.98;100.00
11448;BME280;43755;49.736;8.734;2024-02-04T09:34:48;98714.34;;;7.08;100.00
11448;BME280;43755;49.736;8.734;2024-02-04T09:36:49;98709.94;;;7.12;100.00
11448;BME280;43755;49.736;8.734;2024-02-04T09:38:53;98713.44;;;7.12;100.00
11448;BME280;43755;49.736;8.734;2024-02-04T09:40:55;98714.34;;;7.10;100.00
11448;BME280;43755;49.736;8.734;2024-02-04T09:42:59;98709.16;;;7.07;100.00
11448;BME280;43755;49.736;8.734;2024-02-04T09:45:00;98709.03;;;7.13;100.00
11448;BME280;43755;49.736;8.734;2024-02-04T09:47:02;98706.22;;;7.23;100.00
11448;BME280;43755;49.736;8.734;2024-02-04T09:49:05;98717.66;;;7.19;100.00
11448;BME280;43755;49.736;8.734;2024-02-04T09:51:06;98714.84;;;7.30;100.00
11448;BME280;43755;49.736;8.734;2024-02-04T09:53:08;98714.91;;;7.25;100.00
11448;BME280;43755;49.736;8.734;2024-02-04T09:55:12;98704.34;;;7.30;100.00
11448;BME280;43755;49.736;8.734;2024-02-04T09:57:16;98704.91;;;7.44;100.00
11448;BME280;43755;49.736;8.734;2024-02-04T09:59:20;98705.00;;;7.41;100.00
11448;BME280;43755;49.736;8.734;2024-02-04T10:01:20;98712.84;;;7.43;100.00
11448;BME280;43755;49.736;8.734;2024-02-04T10:03:22;98706.75;;;7.40;100.00
11448;BME280;43755;49.736;8.734;2024-02-04T10:05:24;98692.66;;;7.43;100.00
11448;BME280;43755;49.736;8.734;2024-02-04T10:07:26;98703.81;;;7.56;100.00
11448;BME280;43755;49.736;8.734;2024-02-04T10:09:27;98695.81;;;7.62;100.00
11448;BME280;43755;49.736;8.734;2024-02-04T10:11:29;98691.31;;;7.67;100.00
11448;BME280;43755;49.736;8.734;2024-02-04T10:13:42;98688.50;;;7.76;100.00
11448;BME280;43755;49.736;8.734;2024-02-04T10:15:43;98695.38;;;7.83;100.00
11448;BME280;43755;49.736;8.734;2024-02-04T10:17:45;98699.69;;;7.86;100.00
11448;BME280;43755;49.736;8.734;2024-02-04T10:19:46;98703.00;;;7.95;100.00
11448;BME280;43755;49.736;8.734;2024-02-04T10:21:57;98706.50;;;7.96;100.00
11448;BME280;43755;49.736;8.734;2024-02-04T10:23:59;98702.97;;;7.97;100.00
11448;BME280;43755;49.736;8.734;2024-02-04T10:26:00;98717.13;;;7.93;100.00
11448;BME280;43755;49.736;8.734;2024-02-04T10:28:02;98708.97;;;8.03;100.00
11448;BME280;43755;49.736;8.734;2024-02-04T10:30:04;98714.22;;;8.06;100.00
11448;BME280;43755;49.736;8.734;2024-02-04T10:32:07;98700.16;;;8.06;100.00
11448;BME280;43755;49.736;8.734;2024-02-04T10:34:09;98710.63;;;8.09;100.00
11448;BME280;43755;49.736;8.734;2024-02-04T10:36:10;98699.28;;;8.05;100.00
11448;BME280;43755;49.736;8.734;2024-02-04T10:38:12;98720.13;;;8.16;100.00
11448;BME280;43755;49.736;8.734;2024-02-04T10:40:12;98709.31;;;8.28;100.00
11448;BME280;43755;49.736;8.734;2024-02-04T10:42:15;98712.00;;;8.25;100.00
11448;BME280;43755;49.736;8.734;2024-02-04T10:44:21;98706.69;;;8.28;100.00